General Soler, Argentina
Current Conditions -  °F | °C
As of 11:00 AM on Friday 28 Nov 2014 (Local Time) from SAOC Reporting Station
Clear Clear  
Wind Chill: 81°   Ceiling: Unl
Heat Index: 81°   Visibility: 6mi
Dew Point: 45°   Wind: 25mph
Humidity: 28%   Direction: 340°NNW
Pressure: 29.85"   Gusts: 37mph
Location:  33.95°S, 64.24°W
Report Text: SAOC 281400Z 34022G32KT CAVOK 27/07 Q1011
Loading
Personal Weather Stations






























Interactive Weather Map New forecast layout! Learn more

10-Day Weather Forecast

Advertisements
Track Severe Weather on mobile